sensor_id;sensor_type;location;lat;lon;timestamp;temperature;humidity
66373;SHT30;53168;51.146;17.120;2023-08-06T00:00:11;16.05;84.30
66373;SHT30;53168;51.146;17.120;2023-08-06T00:03:04;16.04;84.29
66373;SHT30;53168;51.146;17.120;2023-08-06T00:05:35;16.04;84.30
66373;SHT30;53168;51.146;17.120;2023-08-06T00:08:05;16.05;84.29
66373;SHT30;53168;51.146;17.120;2023-08-06T00:10:34;16.05;84.23
66373;SHT30;53168;51.146;17.120;2023-08-06T00:13:04;16.04;84.27
66373;SHT30;53168;51.146;17.120;2023-08-06T00:15:35;16.05;84.30
66373;SHT30;53168;51.146;17.120;2023-08-06T00:18:04;16.06;84.30
66373;SHT30;53168;51.146;17.120;2023-08-06T00:20:34;16.06;84.30
66373;SHT30;53168;51.146;17.120;2023-08-06T00:23:04;16.07;84.30
66373;SHT30;53168;51.146;17.120;2023-08-06T00:25:34;16.08;84.30
66373;SHT30;53168;51.146;17.120;2023-08-06T00:28:13;16.08;84.30
66373;SHT30;53168;51.146;17.120;2023-08-06T00:30:43;16.09;84.30
66373;SHT30;53168;51.146;17.120;2023-08-06T00:33:13;16.11;84.30
66373;SHT30;53168;51.146;17.120;2023-08-06T00:35:43;16.12;84.30
66373;SHT30;53168;51.146;17.120;2023-08-06T00:38:12;16.11;84.30
66373;SHT30;53168;51.146;17.120;2023-08-06T00:40:42;16.10;84.28
66373;SHT30;53168;51.146;17.120;2023-08-06T00:43:12;16.08;84.28
66373;SHT30;53168;51.146;17.120;2023-08-06T00:45:42;16.08;84.30
66373;SHT30;53168;51.146;17.120;2023-08-06T00:48:12;16.05;84.30
66373;SHT30;53168;51.146;17.120;2023-08-06T00:50:42;16.04;84.30
66373;SHT30;53168;51.146;17.120;2023-08-06T00:53:12;16.01;84.36
66373;SHT30;53168;51.146;17.120;2023-08-06T00:55:45;15.97;84.40
66373;SHT30;53168;51.146;17.120;2023-08-06T00:58:16;15.94;84.46
66373;SHT30;53168;51.146;17.120;2023-08-06T01:00:47;15.91;84.50
66373;SHT30;53168;51.146;17.120;2023-08-06T01:03:17;15.91;84.53
66373;SHT30;53168;51.146;17.120;2023-08-06T01:05:47;15.90;84.52
66373;SHT30;53168;51.146;17.120;2023-08-06T01:08:30;15.90;84.56
66373;SHT30;53168;51.146;17.120;2023-08-06T01:11:19;15.90;84.53
66373;SHT30;53168;51.146;17.120;2023-08-06T01:14:02;15.89;84.58
66373;SHT30;53168;51.146;17.120;2023-08-06T01:16:38;15.88;84.57
66373;SHT30;53168;51.146;17.120;2023-08-06T01:19:24;15.87;84.60
66373;SHT30;53168;51.146;17.120;2023-08-06T01:21:55;15.86;84.60
66373;SHT30;53168;51.146;17.120;2023-08-06T01:24:24;15.86;84.60
66373;SHT30;53168;51.146;17.120;2023-08-06T01:27:06;15.86;84.60
66373;SHT30;53168;51.146;17.120;2023-08-06T01:29:44;15.85;84.60
66373;SHT30;53168;51.146;17.120;2023-08-06T01:32:21;15.83;84.60
66373;SHT30;53168;51.146;17.120;2023-08-06T01:34:55;15.80;84.60
66373;SHT30;53168;51.146;17.120;2023-08-06T01:37:30;15.79;84.60
66373;SHT30;53168;51.146;17.120;2023-08-06T01:40:10;15.79;84.60
66373;SHT30;53168;51.146;17.120;2023-08-06T01:42:41;15.80;84.61
66373;SHT30;53168;51.146;17.120;2023-08-06T01:45:12;15.81;84.60
66373;SHT30;53168;51.146;17.120;2023-08-06T01:47:45;15.83;84.60
66373;SHT30;53168;51.146;17.120;2023-08-06T01:50:15;15.82;84.60
66373;SHT30;53168;51.146;17.120;2023-08-06T01:52:46;15.82;84.63
66373;SHT30;53168;51.146;17.120;2023-08-06T01:55:18;15.80;84.64
66373;SHT30;53168;51.146;17.120;2023-08-06T01:57:48;15.79;84.67
66373;SHT30;53168;51.146;17.120;2023-08-06T02:00:18;15.77;84.70
66373;SHT30;53168;51.146;17.120;2023-08-06T02:02:48;15.74;84.76
66373;SHT30;53168;51.146;17.120;2023-08-06T02:05:18;15.73;84.80
66373;SHT30;53168;51.146;17.120;2023-08-06T02:07:47;15.73;84.80
66373;SHT30;53168;51.146;17.120;2023-08-06T02:10:17;15.71;84.87
66373;SHT30;53168;51.146;17.120;2023-08-06T02:12:47;15.70;84.90
66373;SHT30;53168;51.146;17.120;2023-08-06T02:15:16;15.67;84.90
66373;SHT30;53168;51.146;17.120;2023-08-06T02:17:46;15.65;84.91
66373;SHT30;53168;51.146;17.120;2023-08-06T02:20:16;15.63;84.97
66373;SHT30;53168;51.146;17.120;2023-08-06T02:22:46;15.61;85.01
66373;SHT30;53168;51.146;17.120;2023-08-06T02:25:16;15.59;85.07
66373;SHT30;53168;51.146;17.120;2023-08-06T02:27:45;15.56;85.10
66373;SHT30;53168;51.146;17.120;2023-08-06T02:30:15;15.54;85.17
66373;SHT30;53168;51.146;17.120;2023-08-06T02:32:45;15.51;85.20
66373;SHT30;53168;51.146;17.120;2023-08-06T02:35:15;15.49;85.24
66373;SHT30;53168;51.146;17.120;2023-08-06T02:37:44;15.46;85.28
66373;SHT30;53168;51.146;17.120;2023-08-06T02:40:14;15.45;85.32
66373;SHT30;53168;51.146;17.120;2023-08-06T02:42:44;15.41;85.38
66373;SHT30;53168;51.146;17.120;2023-08-06T02:45:14;15.41;85.40
66373;SHT30;53168;51.146;17.120;2023-08-06T02:47:43;15.39;85.40
66373;SHT30;53168;51.146;17.120;2023-08-06T02:50:13;15.38;85.46
66373;SHT30;53168;51.146;17.120;2023-08-06T02:52:43;15.37;85.50
66373;SHT30;53168;51.146;17.120;2023-08-06T02:55:13;15.37;85.50
66373;SHT30;53168;51.146;17.120;2023-08-06T02:57:45;15.38;85.51
66373;SHT30;53168;51.146;17.120;2023-08-06T03:00:15;15.38;85.50
66373;SHT30;53168;51.146;17.120;2023-08-06T03:02:45;15.39;85.49
66373;SHT30;53168;51.146;17.120;2023-08-06T03:05:40;15.38;85.49
66373;SHT30;53168;51.146;17.120;2023-08-06T03:08:20;15.38;85.50
66373;SHT30;53168;51.146;17.120;2023-08-06T03:10:51;15.35;85.50
66373;SHT30;53168;51.146;17.120;2023-08-06T03:13:21;15.33;85.53
66373;SHT30;53168;51.146;17.120;2023-08-06T03:15:57;15.32;85.58
66373;SHT30;53168;51.146;17.120;2023-08-06T03:18:28;15.30;85.60
66373;SHT30;53168;51.146;17.120;2023-08-06T03:20:59;15.30;85.60
66373;SHT30;53168;51.146;17.120;2023-08-06T03:23:30;15.29;85.60
66373;SHT30;53168;51.146;17.120;2023-08-06T03:26:03;15.30;85.60
66373;SHT30;53168;51.146;17.120;2023-08-06T03:28:33;15.31;85.58
66373;SHT30;53168;51.146;17.120;2023-08-06T03:31:04;15.30;85.60
66373;SHT30;53168;51.146;17.120;2023-08-06T03:33:38;15.29;85.60
66373;SHT30;53168;51.146;17.120;2023-08-06T03:36:11;15.28;85.60
66373;SHT30;53168;51.146;17.120;2023-08-06T03:38:41;15.26;85.60
66373;SHT30;53168;51.146;17.120;2023-08-06T03:41:16;15.25;85.60
66373;SHT30;53168;51.146;17.120;2023-08-06T03:43:46;15.22;85.62
66373;SHT30;53168;51.146;17.120;2023-08-06T03:46:21;15.18;85.64
66373;SHT30;53168;51.146;17.120;2023-08-06T03:48:51;15.14;85.70
66373;SHT30;53168;51.146;17.120;2023-08-06T03:51:21;15.13;85.73
66373;SHT30;53168;51.146;17.120;2023-08-06T03:53:51;15.10;85.77
66373;SHT30;53168;51.146;17.120;2023-08-06T03:56:20;15.08;85.80
66373;SHT30;53168;51.146;17.120;2023-08-06T03:58:50;15.06;85.81
66373;SHT30;53168;51.146;17.120;2023-08-06T04:01:22;15.05;85.81
66373;SHT30;53168;51.146;17.120;2023-08-06T04:03:53;15.04;85.82
66373;SHT30;53168;51.146;17.120;2023-08-06T04:06:22;15.02;85.85
66373;SHT30;53168;51.146;17.120;2023-08-06T04:08:53;15.02;85.88
66373;SHT30;53168;51.146;17.120;2023-08-06T04:11:23;15.02;85.82
66373;SHT30;53168;51.146;17.120;2023-08-06T04:13:52;15.01;85.83
66373;SHT30;53168;51.146;17.120;2023-08-06T04:16:25;15.01;85.80
66373;SHT30;53168;51.146;17.120;2023-08-06T04:18:58;15.01;85.80
66373;SHT30;53168;51.146;17.120;2023-08-06T04:21:27;15.00;85.81
66373;SHT30;53168;51.146;17.120;2023-08-06T04:23:57;15.00;85.81
66373;SHT30;53168;51.146;17.120;2023-08-06T04:26:28;15.00;85.83
66373;SHT30;53168;51.146;17.120;2023-08-06T04:31:43;14.96;85.82
66373;SHT30;53168;51.146;17.120;2023-08-06T04:37:04;14.91;85.92
66373;SHT30;53168;51.146;17.120;2023-08-06T04:39:34;14.90;86.00
66373;SHT30;53168;51.146;17.120;2023-08-06T04:42:05;14.89;86.00
66373;SHT30;53168;51.146;17.120;2023-08-06T04:44:36;14.88;86.07
66373;SHT30;53168;51.146;17.120;2023-08-06T04:47:06;14.89;86.10
66373;SHT30;53168;51.146;17.120;2023-08-06T04:49:36;14.90;86.10
66373;SHT30;53168;51.146;17.120;2023-08-06T04:52:07;14.90;86.10
66373;SHT30;53168;51.146;17.120;2023-08-06T04:54:36;14.91;86.10
66373;SHT30;53168;51.146;17.120;2023-08-06T04:57:06;14.92;86.11
66373;SHT30;53168;51.146;17.120;2023-08-06T04:59:37;14.92;86.14
66373;SHT30;53168;51.146;17.120;2023-08-06T05:02:07;14.92;86.18
66373;SHT30;53168;51.146;17.120;2023-08-06T05:04:37;14.91;86.15
66373;SHT30;53168;51.146;17.120;2023-08-06T05:07:07;14.91;86.19
66373;SHT30;53168;51.146;17.120;2023-08-06T05:09:37;14.91;86.19
66373;SHT30;53168;51.146;17.120;2023-08-06T05:12:10;14.91;86.20
66373;SHT30;53168;51.146;17.120;2023-08-06T05:14:43;14.90;86.20
66373;SHT30;53168;51.146;17.120;2023-08-06T05:17:16;14.91;86.20
66373;SHT30;53168;51.146;17.120;2023-08-06T05:19:45;14.90;86.18
66373;SHT30;53168;51.146;17.120;2023-08-06T05:22:15;14.92;86.20
66373;SHT30;53168;51.146;17.120;2023-08-06T05:24:45;14.91;86.20
66373;SHT30;53168;51.146;17.120;2023-08-06T05:27:14;14.91;86.20
66373;SHT30;53168;51.146;17.120;2023-08-06T05:29:47;14.90;86.20
66373;SHT30;53168;51.146;17.120;2023-08-06T05:32:17;14.91;86.20
66373;SHT30;53168;51.146;17.120;2023-08-06T05:34:46;14.89;86.21
66373;SHT30;53168;51.146;17.120;2023-08-06T05:37:16;14.91;86.20
66373;SHT30;53168;51.146;17.120;2023-08-06T05:39:45;14.90;86.21
66373;SHT30;53168;51.146;17.120;2023-08-06T05:42:15;14.90;86.24
66373;SHT30;53168;51.146;17.120;2023-08-06T05:44:47;14.91;86.26
66373;SHT30;53168;51.146;17.120;2023-08-06T05:47:17;14.91;86.27
66373;SHT30;53168;51.146;17.120;2023-08-06T05:49:48;14.92;86.29
66373;SHT30;53168;51.146;17.120;2023-08-06T05:52:18;14.91;86.30
66373;SHT30;53168;51.146;17.120;2023-08-06T05:54:48;14.92;86.30
66373;SHT30;53168;51.146;17.120;2023-08-06T05:57:17;14.90;86.31
66373;SHT30;53168;51.146;17.120;2023-08-06T05:59:47;14.90;86.39
66373;SHT30;53168;51.146;17.120;2023-08-06T06:02:16;14.91;86.40
66373;SHT30;53168;51.146;17.120;2023-08-06T06:04:51;14.91;86.39
66373;SHT30;53168;51.146;17.120;2023-08-06T06:07:20;14.89;86.40
66373;SHT30;53168;51.146;17.120;2023-08-06T06:09:50;14.88;86.40
66373;SHT30;53168;51.146;17.120;2023-08-06T06:12:19;14.88;86.40
66373;SHT30;53168;51.146;17.120;2023-08-06T06:14:50;14.87;86.42
66373;SHT30;53168;51.146;17.120;2023-08-06T06:17:23;14.87;86.41
66373;SHT30;53168;51.146;17.120;2023-08-06T06:19:53;14.88;86.42
66373;SHT30;53168;51.146;17.120;2023-08-06T06:22:22;14.87;86.40
66373;SHT30;53168;51.146;17.120;2023-08-06T06:24:52;14.87;86.41
66373;SHT30;53168;51.146;17.120;2023-08-06T06:27:22;14.88;86.40
66373;SHT30;53168;51.146;17.120;2023-08-06T06:29:51;14.89;86.40
66373;SHT30;53168;51.146;17.120;2023-08-06T06:32:22;14.89;86.40
66373;SHT30;53168;51.146;17.120;2023-08-06T06:34:52;14.87;86.39
66373;SHT30;53168;51.146;17.120;2023-08-06T06:37:23;14.88;86.40
66373;SHT30;53168;51.146;17.120;2023-08-06T06:39:53;14.88;86.40
66373;SHT30;53168;51.146;17.120;2023-08-06T06:42:23;14.89;86.40
66373;SHT30;53168;51.146;17.120;2023-08-06T06:44:53;14.89;86.40
66373;SHT30;53168;51.146;17.120;2023-08-06T06:47:23;14.89;86.42
66373;SHT30;53168;51.146;17.120;2023-08-06T06:49:53;14.90;86.48
66373;SHT30;53168;51.146;17.120;2023-08-06T06:52:23;14.93;86.48
66373;SHT30;53168;51.146;17.120;2023-08-06T06:54:52;14.95;86.49
66373;SHT30;53168;51.146;17.120;2023-08-06T06:57:25;14.98;86.45
66373;SHT30;53168;51.146;17.120;2023-08-06T06:59:55;14.99;86.45
66373;SHT30;53168;51.146;17.120;2023-08-06T07:02:25;15.00;86.45
66373;SHT30;53168;51.146;17.120;2023-08-06T07:04:58;15.00;86.49
66373;SHT30;53168;51.146;17.120;2023-08-06T07:07:28;15.00;86.49
66373;SHT30;53168;51.146;17.120;2023-08-06T07:09:58;14.99;86.50
66373;SHT30;53168;51.146;17.120;2023-08-06T07:12:27;14.99;86.54
66373;SHT30;53168;51.146;17.120;2023-08-06T07:14:57;15.03;86.55
66373;SHT30;53168;51.146;17.120;2023-08-06T07:17:46;15.03;86.50
66373;SHT30;53168;51.146;17.120;2023-08-06T07:20:17;15.05;86.51
66373;SHT30;53168;51.146;17.120;2023-08-06T07:22:47;15.05;86.50
66373;SHT30;53168;51.146;17.120;2023-08-06T07:25:18;15.05;86.50
66373;SHT30;53168;51.146;17.120;2023-08-06T07:27:58;15.05;86.49
66373;SHT30;53168;51.146;17.120;2023-08-06T07:30:31;15.06;86.49
66373;SHT30;53168;51.146;17.120;2023-08-06T07:33:19;15.09;86.50
66373;SHT30;53168;51.146;17.120;2023-08-06T07:35:53;15.12;86.50
66373;SHT30;53168;51.146;17.120;2023-08-06T07:38:23;15.16;86.47
66373;SHT30;53168;51.146;17.120;2023-08-06T07:40:55;15.16;86.40
66373;SHT30;53168;51.146;17.120;2023-08-06T07:43:25;15.15;86.40
66373;SHT30;53168;51.146;17.120;2023-08-06T07:45:58;15.14;86.41
66373;SHT30;53168;51.146;17.120;2023-08-06T07:48:29;15.14;86.43
66373;SHT30;53168;51.146;17.120;2023-08-06T07:51:01;15.13;86.42
66373;SHT30;53168;51.146;17.120;2023-08-06T07:53:31;15.12;86.43
66373;SHT30;53168;51.146;17.120;2023-08-06T07:56:01;15.12;86.47
66373;SHT30;53168;51.146;17.120;2023-08-06T07:58:33;15.13;86.46
66373;SHT30;53168;51.146;17.120;2023-08-06T08:01:04;15.15;86.50
66373;SHT30;53168;51.146;17.120;2023-08-06T08:03:36;15.18;86.50
66373;SHT30;53168;51.146;17.120;2023-08-06T08:06:05;15.18;86.41
66373;SHT30;53168;51.146;17.120;2023-08-06T08:08:43;15.18;86.45
66373;SHT30;53168;51.146;17.120;2023-08-06T08:11:14;15.19;86.47
66373;SHT30;53168;51.146;17.120;2023-08-06T08:13:58;15.19;86.49
66373;SHT30;53168;51.146;17.120;2023-08-06T08:17:01;15.19;86.49
66373;SHT30;53168;51.146;17.120;2023-08-06T08:19:59;15.20;86.49
66373;SHT30;53168;51.146;17.120;2023-08-06T08:22:33;15.22;86.50
66373;SHT30;53168;51.146;17.120;2023-08-06T08:25:08;15.23;86.50
66373;SHT30;53168;51.146;17.120;2023-08-06T08:27:59;15.24;86.42
66373;SHT30;53168;51.146;17.120;2023-08-06T08:30:32;15.27;86.43
66373;SHT30;53168;51.146;17.120;2023-08-06T08:33:16;15.30;86.41
66373;SHT30;53168;51.146;17.120;2023-08-06T08:35:50;15.31;86.37
66373;SHT30;53168;51.146;17.120;2023-08-06T08:38:51;15.36;86.34
66373;SHT30;53168;51.146;17.120;2023-08-06T08:41:28;15.43;86.30
66373;SHT30;53168;51.146;17.120;2023-08-06T08:44:10;15.47;86.26
66373;SHT30;53168;51.146;17.120;2023-08-06T08:46:50;15.49;86.20
66373;SHT30;53168;51.146;17.120;2023-08-06T08:50:05;15.49;86.20
66373;SHT30;53168;51.146;17.120;2023-08-06T09:00:10;15.51;86.10
66373;SHT30;53168;51.146;17.120;2023-08-06T09:03:41;15.55;86.10
66373;SHT30;53168;51.146;17.120;2023-08-06T09:06:24;15.59;86.10
66373;SHT30;53168;51.146;17.120;2023-08-06T09:09:09;15.62;86.05
66373;SHT30;53168;51.146;17.120;2023-08-06T09:11:46;15.63;86.00
66373;SHT30;53168;51.146;17.120;2023-08-06T09:14:44;15.65;85.93
66373;SHT30;53168;51.146;17.120;2023-08-06T09:17:32;15.62;85.91
66373;SHT30;53168;51.146;17.120;2023-08-06T09:20:17;15.63;85.97
66373;SHT30;53168;51.146;17.120;2023-08-06T09:23:19;15.62;85.90
66373;SHT30;53168;51.146;17.120;2023-08-06T09:25:56;15.61;85.94
66373;SHT30;53168;51.146;17.120;2023-08-06T09:28:42;15.60;85.97
66373;SHT30;53168;51.146;17.120;2023-08-06T09:31:34;15.57;85.99
66373;SHT30;53168;51.146;17.120;2023-08-06T09:34:17;15.53;85.90
66373;SHT30;53168;51.146;17.120;2023-08-06T09:36:50;15.49;85.94
66373;SHT30;53168;51.146;17.120;2023-08-06T09:39:33;15.49;86.01
66373;SHT30;53168;51.146;17.120;2023-08-06T09:42:31;15.48;86.07
66373;SHT30;53168;51.146;17.120;2023-08-06T09:45:09;15.49;86.10
66373;SHT30;53168;51.146;17.120;2023-08-06T09:47:49;15.50;86.11
66373;SHT30;53168;51.146;17.120;2023-08-06T09:50:30;15.51;86.15
66373;SHT30;53168;51.146;17.120;2023-08-06T09:53:08;15.54;86.16
66373;SHT30;53168;51.146;17.120;2023-08-06T09:55:54;15.55;86.15
66373;SHT30;53168;51.146;17.120;2023-08-06T09:59:06;15.54;86.12
66373;SHT30;53168;51.146;17.120;2023-08-06T10:02:11;15.54;86.16
66373;SHT30;53168;51.146;17.120;2023-08-06T10:05:35;15.52;86.11
66373;SHT30;53168;51.146;17.120;2023-08-06T10:08:31;15.51;86.20
66373;SHT30;53168;51.146;17.120;2023-08-06T10:11:48;15.52;86.20
66373;SHT30;53168;51.146;17.120;2023-08-06T10:16:07;15.51;86.20
66373;SHT30;53168;51.146;17.120;2023-08-06T10:19:24;15.50;86.30
66373;SHT30;53168;51.146;17.120;2023-08-06T10:22:43;15.50;86.30
66373;SHT30;53168;51.146;17.120;2023-08-06T10:25:53;15.51;86.37
66373;SHT30;53168;51.146;17.120;2023-08-06T10:39:52;15.64;86.24
66373;SHT30;53168;51.146;17.120;2023-08-06T10:43:11;15.65;86.27
66373;SHT30;53168;51.146;17.120;2023-08-06T10:46:40;15.67;86.29
66373;SHT30;53168;51.146;17.120;2023-08-06T10:49:53;15.71;86.30
66373;SHT30;53168;51.146;17.120;2023-08-06T10:56:00;15.77;86.20
66373;SHT30;53168;51.146;17.120;2023-08-06T10:58:48;15.77;86.20
66373;SHT30;53168;51.146;17.120;2023-08-06T11:02:10;15.85;86.26
66373;SHT30;53168;51.146;17.120;2023-08-06T11:05:01;15.95;86.13
66373;SHT30;53168;51.146;17.120;2023-08-06T11:11:55;16.16;85.89
66373;SHT30;53168;51.146;17.120;2023-08-06T11:14:33;16.23;85.84
66373;SHT30;53168;51.146;17.120;2023-08-06T11:17:12;16.24;85.70
66373;SHT30;53168;51.146;17.120;2023-08-06T11:19:46;16.25;85.69
66373;SHT30;53168;51.146;17.120;2023-08-06T11:22:21;16.22;85.65
66373;SHT30;53168;51.146;17.120;2023-08-06T11:24:57;16.20;85.69
66373;SHT30;53168;51.146;17.120;2023-08-06T11:27:31;16.19;85.67
66373;SHT30;53168;51.146;17.120;2023-08-06T11:30:10;16.17;85.67
66373;SHT30;53168;51.146;17.120;2023-08-06T11:32:49;16.19;85.66
66373;SHT30;53168;51.146;17.120;2023-08-06T11:35:23;16.17;85.59
66373;SHT30;53168;51.146;17.120;2023-08-06T11:37:58;16.14;85.64
66373;SHT30;53168;51.146;17.120;2023-08-06T11:40:33;16.14;85.74
66373;SHT30;53168;51.146;17.120;2023-08-06T11:43:13;16.14;85.77
66373;SHT30;53168;51.146;17.120;2023-08-06T11:45:47;16.14;85.76
66373;SHT30;53168;51.146;17.120;2023-08-06T11:48:26;16.11;85.80
66373;SHT30;53168;51.146;17.120;2023-08-06T11:51:00;16.08;85.89
66373;SHT30;53168;51.146;17.120;2023-08-06T11:53:36;16.03;85.80
66373;SHT30;53168;51.146;17.120;2023-08-06T11:56:10;15.98;85.92
66373;SHT30;53168;51.146;17.120;2023-08-06T11:58:45;15.97;85.98
66373;SHT30;53168;51.146;17.120;2023-08-06T12:01:21;15.95;85.99
66373;SHT30;53168;51.146;17.120;2023-08-06T12:04:01;15.92;85.96
66373;SHT30;53168;51.146;17.120;2023-08-06T12:06:44;15.88;86.00
66373;SHT30;53168;51.146;17.120;2023-08-06T12:09:18;15.87;86.14
66373;SHT30;53168;51.146;17.120;2023-08-06T12:11:52;15.88;86.20
66373;SHT30;53168;51.146;17.120;2023-08-06T12:14:28;15.88;86.20
66373;SHT30;53168;51.146;17.120;2023-08-06T12:17:02;15.86;86.18
66373;SHT30;53168;51.146;17.120;2023-08-06T12:19:36;15.86;86.16
66373;SHT30;53168;51.146;17.120;2023-08-06T12:22:12;15.86;86.11
66373;SHT30;53168;51.146;17.120;2023-08-06T12:24:47;15.86;86.10
66373;SHT30;53168;51.146;17.120;2023-08-06T12:27:21;15.85;86.12
66373;SHT30;53168;51.146;17.120;2023-08-06T12:30:14;15.84;86.20
66373;SHT30;53168;51.146;17.120;2023-08-06T12:32:49;15.82;86.15
66373;SHT30;53168;51.146;17.120;2023-08-06T12:35:24;15.83;86.18
66373;SHT30;53168;51.146;17.120;2023-08-06T12:38:00;15.84;86.13
66373;SHT30;53168;51.146;17.120;2023-08-06T12:40:34;15.83;86.17
66373;SHT30;53168;51.146;17.120;2023-08-06T12:43:43;15.86;86.20
66373;SHT30;53168;51.146;17.120;2023-08-06T12:46:18;15.87;86.20
66373;SHT30;53168;51.146;17.120;2023-08-06T12:48:52;15.88;86.20
66373;SHT30;53168;51.146;17.120;2023-08-06T12:51:28;15.89;86.20
66373;SHT30;53168;51.146;17.120;2023-08-06T12:54:04;15.88;86.19
66373;SHT30;53168;51.146;17.120;2023-08-06T12:56:37;15.90;86.20
66373;SHT30;53168;51.146;17.120;2023-08-06T12:59:11;15.93;86.20
66373;SHT30;53168;51.146;17.120;2023-08-06T13:01:46;15.98;86.20
66373;SHT30;53168;51.146;17.120;2023-08-06T13:04:21;16.02;86.20
66373;SHT30;53168;51.146;17.120;2023-08-06T13:06:56;16.05;86.12
66373;SHT30;53168;51.146;17.120;2023-08-06T13:09:33;16.04;86.10
66373;SHT30;53168;51.146;17.120;2023-08-06T13:12:08;16.06;86.18
66373;SHT30;53168;51.146;17.120;2023-08-06T13:14:42;16.09;86.20
66373;SHT30;53168;51.146;17.120;2023-08-06T13:17:17;16.10;86.21
66373;SHT30;53168;51.146;17.120;2023-08-06T13:19:59;16.10;86.22
66373;SHT30;53168;51.146;17.120;2023-08-06T13:22:39;16.07;86.23
66373;SHT30;53168;51.146;17.120;2023-08-06T13:25:37;16.07;86.30
66373;SHT30;53168;51.146;17.120;2023-08-06T13:28:17;16.08;86.22
66373;SHT30;53168;51.146;17.120;2023-08-06T13:31:01;16.08;86.21
66373;SHT30;53168;51.146;17.120;2023-08-06T13:33:38;16.08;86.18
66373;SHT30;53168;51.146;17.120;2023-08-06T13:36:12;16.05;86.17
66373;SHT30;53168;51.146;17.120;2023-08-06T13:38:49;16.04;86.13
66373;SHT30;53168;51.146;17.120;2023-08-06T13:41:24;16.04;86.12
66373;SHT30;53168;51.146;17.120;2023-08-06T13:43:59;16.05;86.17
66373;SHT30;53168;51.146;17.120;2023-08-06T13:46:35;16.08;86.12
66373;SHT30;53168;51.146;17.120;2023-08-06T13:49:09;16.10;86.05
66373;SHT30;53168;51.146;17.120;2023-08-06T13:51:47;16.10;86.00
66373;SHT30;53168;51.146;17.120;2023-08-06T13:54:22;16.09;85.99
66373;SHT30;53168;51.146;17.120;2023-08-06T13:56:57;16.12;86.00
66373;SHT30;53168;51.146;17.120;2023-08-06T13:59:31;16.15;85.93
66373;SHT30;53168;51.146;17.120;2023-08-06T14:02:09;16.18;85.96
66373;SHT30;53168;51.146;17.120;2023-08-06T14:04:46;16.16;85.84
66373;SHT30;53168;51.146;17.120;2023-08-06T14:07:21;16.11;85.87
66373;SHT30;53168;51.146;17.120;2023-08-06T14:09:56;16.05;85.86
66373;SHT30;53168;51.146;17.120;2023-08-06T14:12:42;16.01;85.87
66373;SHT30;53168;51.146;17.120;2023-08-06T14:15:39;15.97;85.90
66373;SHT30;53168;51.146;17.120;2023-08-06T14:18:19;15.96;85.92
66373;SHT30;53168;51.146;17.120;2023-08-06T14:21:10;15.96;85.96
66373;SHT30;53168;51.146;17.120;2023-08-06T14:23:48;15.93;85.86
66373;SHT30;53168;51.146;17.120;2023-08-06T14:26:22;15.91;85.90
66373;SHT30;53168;51.146;17.120;2023-08-06T14:29:00;15.94;85.84
66373;SHT30;53168;51.146;17.120;2023-08-06T14:31:40;15.96;85.75
66373;SHT30;53168;51.146;17.120;2023-08-06T14:34:15;15.97;85.78
66373;SHT30;53168;51.146;17.120;2023-08-06T14:36:50;16.00;85.81
66373;SHT30;53168;51.146;17.120;2023-08-06T14:39:29;16.06;85.90
66373;SHT30;53168;51.146;17.120;2023-08-06T14:42:05;16.09;85.78
66373;SHT30;53168;51.146;17.120;2023-08-06T14:44:41;16.07;85.69
66373;SHT30;53168;51.146;17.120;2023-08-06T14:47:18;16.07;85.77
66373;SHT30;53168;51.146;17.120;2023-08-06T14:49:58;16.08;85.75
66373;SHT30;53168;51.146;17.120;2023-08-06T14:52:35;16.13;85.71
66373;SHT30;53168;51.146;17.120;2023-08-06T14:55:12;16.19;85.70
66373;SHT30;53168;51.146;17.120;2023-08-06T14:57:54;16.25;85.52
66373;SHT30;53168;51.146;17.120;2023-08-06T15:00:30;16.25;85.51
66373;SHT30;53168;51.146;17.120;2023-08-06T15:03:07;16.22;85.50
66373;SHT30;53168;51.146;17.120;2023-08-06T15:05:57;16.17;85.54
66373;SHT30;53168;51.146;17.120;2023-08-06T15:08:50;16.21;85.60
66373;SHT30;53168;51.146;17.120;2023-08-06T15:11:32;16.28;85.60
66373;SHT30;53168;51.146;17.120;2023-08-06T15:14:18;16.30;85.48
66373;SHT30;53168;51.146;17.120;2023-08-06T15:16:53;16.32;85.54
66373;SHT30;53168;51.146;17.120;2023-08-06T15:19:29;16.36;85.51
66373;SHT30;53168;51.146;17.120;2023-08-06T15:22:04;16.38;85.50
66373;SHT30;53168;51.146;17.120;2023-08-06T15:24:38;16.35;85.44
66373;SHT30;53168;51.146;17.120;2023-08-06T15:27:16;16.28;85.28
66373;SHT30;53168;51.146;17.120;2023-08-06T15:29:51;16.20;85.37
66373;SHT30;53168;51.146;17.120;2023-08-06T15:32:25;16.16;85.44
66373;SHT30;53168;51.146;17.120;2023-08-06T15:35:00;16.15;85.50
66373;SHT30;53168;51.146;17.120;2023-08-06T15:37:37;16.16;85.40
66373;SHT30;53168;51.146;17.120;2023-08-06T15:40:12;16.15;85.35
66373;SHT30;53168;51.146;17.120;2023-08-06T15:42:46;16.14;85.40
66373;SHT30;53168;51.146;17.120;2023-08-06T15:45:21;16.11;85.40
66373;SHT30;53168;51.146;17.120;2023-08-06T15:47:59;16.07;85.49
66373;SHT30;53168;51.146;17.120;2023-08-06T15:50:33;16.04;85.55
66373;SHT30;53168;51.146;17.120;2023-08-06T15:53:09;16.03;85.58
66373;SHT30;53168;51.146;17.120;2023-08-06T15:55:43;16.01;85.59
66373;SHT30;53168;51.146;17.120;2023-08-06T15:58:19;15.98;85.59
66373;SHT30;53168;51.146;17.120;2023-08-06T16:00:54;15.94;85.61
66373;SHT30;53168;51.146;17.120;2023-08-06T16:03:28;15.92;85.69
66373;SHT30;53168;51.146;17.120;2023-08-06T16:06:02;15.90;85.67
66373;SHT30;53168;51.146;17.120;2023-08-06T16:08:38;15.87;85.61
66373;SHT30;53168;51.146;17.120;2023-08-06T16:11:12;15.86;85.60
66373;SHT30;53168;51.146;17.120;2023-08-06T16:13:46;15.87;85.59
66373;SHT30;53168;51.146;17.120;2023-08-06T16:16:21;15.86;85.52
66373;SHT30;53168;51.146;17.120;2023-08-06T16:18:55;15.85;85.48
66373;SHT30;53168;51.146;17.120;2023-08-06T16:21:30;15.83;85.42
66373;SHT30;53168;51.146;17.120;2023-08-06T16:24:06;15.81;85.47
66373;SHT30;53168;51.146;17.120;2023-08-06T16:29:42;15.78;85.54
66373;SHT30;53168;51.146;17.120;2023-08-06T16:32:24;15.79;85.50
66373;SHT30;53168;51.146;17.120;2023-08-06T16:35:08;15.80;85.51
66373;SHT30;53168;51.146;17.120;2023-08-06T16:37:44;15.81;85.53
66373;SHT30;53168;51.146;17.120;2023-08-06T16:40:52;15.82;85.48
66373;SHT30;53168;51.146;17.120;2023-08-06T16:43:37;15.84;85.51
66373;SHT30;53168;51.146;17.120;2023-08-06T16:46:16;15.86;85.50
66373;SHT30;53168;51.146;17.120;2023-08-06T16:48:52;15.86;85.50